アシガバート の空港の天気 - METARとTAF

アシガバート空港 ( UTAA / ASB ) - トルクメニスタン アシガバート
飛行場実況気象(Metar)
観測時間01/23 09:00 TMT (01/23 04:00 UTC)
風向・風速東 2m/s
視程10km以上
天気現象
少しの雲 雲底高度 3050m
全天を覆う雲 雲底高度 7010m
気温2℃
湿度81%
気圧1009hPa
METARUTAA 230400Z 09004KT 9999 FEW100 OVC230 02/M01 Q1009 R88/70D NOSIG
過去の天気等 Google飛行場航空写真 Wunderground天気予報

過去48時間のMETAR

飛行場予報(TAF)
発表時間: 1/23 03:30 TMT (1/22 22:30 UTC)
予報対象時間: 23日5時 TMT ~ 24日5時 TMT
風向・風速南東 7m/s
視程7,000m
全天の8割程度の雲 雲底高度 910m
全天の4割程度の積乱雲 雲底高度 1,220m
23日5時 TMT ~ 23日8時 TMT に一時的に
風向・風速不定 2m/s
視程2,500m
天気現象煙霧
23日8時 TMT ~ 23日11時 TMT に徐々に
風向・風速東南東 6m/s 瞬間風速 11m/s
23日11時 TMT ~ 23日17時 TMT に一時的に
風向・風速東南東 8m/s 瞬間風速 13m/s
視程3,000m
天気現象低い風塵
23日22時 TMT ~ 23日24時 TMT に徐々に
風向・風速西 8m/s
全天の8割程度の雲 雲底高度 300m
全天の4割程度の積乱雲 雲底高度 910m
TAF UTAA 222230Z 2300/2324 14014KT 7000 BKN030 SCT040CB 530009
TEMPO 2300/2303 VRB04KT 2500 HZ
BECMG 2303/2306 12012G22KT
TEMPO 2306/2312 12016G26KT 3000 DRDU
BECMG 2317/2319 26016KT BKN010 SCT030CB